Terminal Aerodrome Forecast
Issued by NWS Cleveland, OH

Home | Current Version | Previous Version | Graphics & Text | Print | Product List | Glossary On
Versions: 1 2 3 4 5 6 7 8 9 10 11 12 13 14 15 16 17 18 19 20 21
524
FTUS41 KCLE 171120
TAFCAK
TAF
KCAK 171120Z 1712/1812 34005KT P6SM OVC020
     FM171800 18008KT P6SM OVC035
     FM172100 18010KT P6SM BKN035
     FM180800 18010G16KT P6SM VCSH OVC025=

USA.gov is the U.S. government's official web portal to all federal, state and local government web resources and services.